Time;durP1;ratioP1;P1;durP2;ratioP2;P2;SDS_P1;SDS_P2;PMS_P1;PMS_P2;Temp;Humidity;BMP_temperature;BMP_pressure;BME280_temperature;BME280_humidity;BME280_pressure;Samples;Min_cycle;Max_cycle;Signal;HPM_P1;HPM_P2
2022/11/01 00:00:44;;;;;;;11.07;9.97;;;;;;;11.67;81.37;93540.97;5070160;28;20186;-68
2022/11/01 00:03:10;;;;;;;10.73;9.77;;;;;;;11.51;82.42;93522.88;5071461;28;20276;-68
2022/11/01 00:11:55;;;;;;;12.17;11.07;;;;;;;11.44;82.57;93538.81;5140819;27;20565;-68
2022/11/01 00:14:20;;;;;;;11.93;10.93;;;;;;;11.45;83.05;93532.56;5116684;27;20254;-68
2022/11/01 00:16:46;;;;;;;12.13;11.20;;;;;;;11.34;83.03;93529.16;5105136;28;20184;-68
2022/11/01 00:19:11;;;;;;;10.83;10.00;;;;;;;11.36;83.40;93536.75;5097116;28;20262;-68
2022/11/01 00:21:37;;;;;;;10.70;9.93;;;;;;;11.28;83.86;93537.25;5095002;28;20184;-68
2022/11/01 00:24:02;;;;;;;10.17;9.57;;;;;;;11.28;83.73;93543.25;5093850;28;20243;-68
2022/11/01 00:26:28;;;;;;;10.57;9.87;;;;;;;11.25;84.09;93541.16;5093662;28;20185;-68
2022/11/01 00:28:54;;;;;;;12.53;11.43;;;;;;;11.23;84.46;93539.84;5100072;28;20224;-68
2022/11/01 00:31:20;;;;;;;12.00;10.33;;;;;;;11.28;84.46;93537.25;5104664;28;20304;-69
2022/11/01 00:33:46;;;;;;;11.97;11.03;;;;;;;11.29;84.30;93536.97;5111909;28;20251;-68
2022/11/01 00:36:12;;;;;;;11.87;11.07;;;;;;;11.26;84.52;93537.50;5123599;28;20225;-68
2022/11/01 00:38:37;;;;;;;12.47;11.30;;;;;;;11.18;84.71;93540.63;5125779;28;20740;-68
2022/11/01 00:41:03;;;;;;;12.10;11.23;;;;;;;11.26;84.37;93534.88;5125281;28;20209;-68
2022/11/01 00:43:34;;;;;;;12.07;11.03;;;;;;;11.30;84.48;93532.53;5124170;28;20211;-69
2022/11/01 00:46:00;;;;;;;13.10;11.90;;;;;;;11.22;84.64;93531.22;5122942;28;20243;-68
2022/11/01 00:48:26;;;;;;;11.73;10.93;;;;;;;11.12;85.14;93525.97;5123015;28;20336;-68
2022/11/01 00:50:52;;;;;;;13.33;12.10;;;;;;;11.11;85.14;93516.56;5123755;28;20216;-68
2022/11/01 00:53:17;;;;;;;12.53;11.73;;;;;;;11.16;84.94;93542.69;5125755;28;20319;-68
2022/11/01 00:55:43;;;;;;;12.90;10.53;;;;;;;11.12;84.90;93535.63;5124190;28;20194;-68
2022/11/01 00:58:08;;;;;;;12.00;10.80;;;;;;;11.03;85.00;93527.53;5124578;28;20232;-68
2022/11/01 01:00:34;;;;;;;11.87;11.07;;;;;;;10.93;86.24;93540.56;5125609;28;20192;-67
2022/11/01 01:03:00;;;;;;;11.90;11.00;;;;;;;10.90;86.30;93538.47;5123842;28;20197;-69
2022/11/01 01:05:25;;;;;;;11.60;10.87;;;;;;;10.83;86.20;93532.69;5124177;28;20185;-69
2022/11/01 01:07:51;;;;;;;11.77;10.80;;;;;;;10.76;86.49;93524.31;5125493;28;20205;-69
2022/11/01 01:10:16;;;;;;;10.47;9.77;;;;;;;10.86;86.54;93537.41;5124605;28;20946;-68
2022/11/01 01:12:42;;;;;;;12.80;11.53;;;;;;;10.94;86.11;93530.91;5123852;28;20243;-69
2022/11/01 01:15:08;;;;;;;14.23;12.00;;;;;;;10.94;86.33;93529.06;5125826;28;20247;-68
2022/11/01 01:17:33;;;;;;;12.10;10.93;;;;;;;10.92;86.45;93535.59;5124878;28;20206;-68
2022/11/01 01:19:59;;;;;;;12.17;11.17;;;;;;;10.82;86.95;93531.13;5122935;28;20219;-68
2022/11/01 01:22:24;;;;;;;12.63;11.43;;;;;;;10.89;86.76;93531.69;5115676;28;20197;-68
2022/11/01 01:24:50;;;;;;;14.17;12.93;;;;;;;10.96;86.56;93519.16;5109384;28;20220;-68
2022/11/01 01:27:16;;;;;;;13.03;12.03;;;;;;;11.01;86.36;93529.63;5108861;28;20180;-68
2022/11/01 01:29:43;;;;;;;12.87;11.97;;;;;;;10.94;86.44;93529.06;5110964;28;20215;-68
2022/11/01 01:32:12;;;;;;;14.10;12.80;;;;;;;10.78;87.15;93537.13;5109038;28;20630;-67
2022/11/01 01:34:37;;;;;;;13.13;12.23;;;;;;;10.82;87.00;93535.56;5110391;28;21102;-69
2022/11/01 01:37:02;;;;;;;12.30;11.33;;;;;;;10.87;86.51;93543.41;5109490;28;20200;-68
2022/11/01 01:39:28;;;;;;;13.57;12.57;;;;;;;10.83;86.72;93537.91;5109238;28;20258;-68
2022/11/01 01:41:56;;;;;;;12.87;11.87;;;;;;;10.67;86.88;93523.25;5110293;28;20832;-68
2022/11/01 01:44:49;;;;;;;13.90;12.83;;;;;;;10.76;87.34;93541.81;5109622;28;20294;-68
2022/11/01 01:47:20;;;;;;;12.67;11.77;;;;;;;10.83;87.08;93542.38;5110179;28;21008;-68
2022/11/01 01:49:53;;;;;;;13.07;12.10;;;;;;;10.70;87.29;93538.41;5110004;28;20225;-67
2022/11/01 01:52:19;;;;;;;14.53;13.03;;;;;;;10.56;87.90;93532.09;5107546;28;20209;-66
2022/11/01 01:54:44;;;;;;;13.63;12.27;;;;;;;10.56;88.35;93536.50;5108982;28;20233;-68
2022/11/01 01:57:10;;;;;;;14.20;13.20;;;;;;;10.61;88.29;93539.94;5109516;28;20192;-68
2022/11/01 01:59:36;;;;;;;14.93;13.43;;;;;;;10.54;88.44;93544.59;5111566;28;20305;-68
2022/11/01 02:02:02;;;;;;;15.37;14.07;;;;;;;10.64;88.09;93536.03;5110893;28;20257;-68
2022/11/01 02:04:39;;;;;;;13.37;12.23;;;;;;;10.62;88.05;93541.50;5109394;28;20215;-68
2022/11/01 02:07:07;;;;;;;14.03;12.90;;;;;;;10.53;88.27;93537.81;5109193;28;20190;-68
2022/11/01 02:09:34;;;;;;;13.70;12.57;;;;;;;10.62;88.47;93538.09;5108110;28;20223;-69
2022/11/01 02:11:59;;;;;;;14.13;12.33;;;;;;;10.63;88.26;93540.47;5109241;28;20206;-68
2022/11/01 02:14:25;;;;;;;13.17;12.07;;;;;;;10.49;88.50;93539.34;5109934;28;20223;-68
2022/11/01 02:17:22;;;;;;;13.07;11.87;;;;;;;10.43;89.14;93547.44;5109622;28;20187;-68
2022/11/01 02:20:06;;;;;;;12.90;11.60;;;;;;;10.55;88.05;93548.78;5103185;28;20236;-68
2022/11/01 02:22:44;;;;;;;11.90;11.00;;;;;;;10.58;88.04;93552.72;5105358;28;20186;-69
2022/11/01 02:25:40;;;;;;;11.33;10.60;;;;;;;10.51;88.14;93550.34;5106697;28;20217;-68
2022/11/01 02:28:31;;;;;;;16.57;11.90;;;;;;;10.54;88.10;93555.06;5104671;28;20232;-68
2022/11/01 02:31:19;;;;;;;11.50;10.50;;;;;;;10.53;88.11;93550.09;5109068;28;20212;-68
2022/11/01 02:33:50;;;;;;;11.97;11.07;;;;;;;10.45;88.52;93555.78;5107862;28;20927;-68
2022/11/01 02:36:30;;;;;;;12.00;10.80;;;;;;;10.41;88.89;93552.88;5108406;28;20294;-68
2022/11/01 02:39:05;;;;;;;11.43;10.53;;;;;;;10.49;88.90;93551.66;5107245;28;20219;-68
2022/11/01 02:41:39;;;;;;;12.80;11.70;;;;;;;10.36;88.95;93546.88;5107859;28;20196;-67
2022/11/01 02:44:14;;;;;;;14.27;12.80;;;;;;;10.38;88.93;93558.63;5107651;28;20250;-68
2022/11/01 02:47:01;;;;;;;13.80;12.43;;;;;;;10.46;88.80;93557.38;5108091;28;20184;-68
2022/11/01 02:49:56;;;;;;;15.07;12.57;;;;;;;10.54;88.58;93560.28;5106944;28;20275;-68
2022/11/01 02:52:25;;;;;;;13.27;12.13;;;;;;;10.55;88.60;93561.06;5107089;28;20196;-68
2022/11/01 02:54:56;;;;;;;11.93;11.07;;;;;;;10.51;88.44;93560.78;5108784;28;20234;-68
2022/11/01 02:57:29;;;;;;;10.97;10.27;;;;;;;10.40;88.26;93555.75;5106282;28;20214;-68
2022/11/01 03:00:03;;;;;;;13.03;11.77;;;;;;;10.46;88.40;93568.59;5107387;28;20238;-68
2022/11/01 03:02:39;;;;;;;11.77;10.97;;;;;;;10.49;88.31;93569.91;5107648;28;20199;-68
2022/11/01 03:05:15;;;;;;;11.90;11.00;;;;;;;10.40;88.98;93572.22;5107511;28;20231;-68
2022/11/01 03:07:45;;;;;;;11.87;10.87;;;;;;;10.19;89.51;93552.28;5107152;28;20197;-68
2022/11/01 03:10:11;;;;;;;12.70;11.60;;;;;;;10.38;89.26;93578.72;5106046;28;21081;-69
2022/11/01 03:12:48;;;;;;;12.57;11.53;;;;;;;10.37;89.39;93574.53;5107617;28;20206;-68
2022/11/01 03:15:26;;;;;;;11.73;10.83;;;;;;;10.26;89.60;93572.91;5108228;28;20215;-68
2022/11/01 03:18:01;;;;;;;11.27;10.20;;;;;;;10.10;90.18;93569.41;5107494;28;20259;-68
2022/11/01 03:20:47;;;;;;;13.10;11.90;;;;;;;10.25;89.58;93582.56;5108281;28;20255;-67
2022/11/01 03:23:22;;;;;;;12.30;11.33;;;;;;;10.16;90.43;93578.88;5109315;28;20238;-68
2022/11/01 03:25:53;;;;;;;12.33;11.30;;;;;;;10.10;90.50;93569.41;5109243;28;20195;-68
2022/11/01 03:28:22;;;;;;;11.63;10.83;;;;;;;10.18;90.03;93582.00;5107905;28;20236;-68
2022/11/01 03:30:54;;;;;;;14.20;12.10;;;;;;;10.22;90.11;93575.25;5108857;28;20237;-68
2022/11/01 03:33:22;;;;;;;12.23;11.33;;;;;;;10.28;89.59;93576.06;5109273;28;20231;-68
2022/11/01 03:35:51;;;;;;;12.30;11.33;;;;;;;10.19;89.58;93565.31;5107821;28;20177;-68
2022/11/01 03:38:22;;;;;;;12.17;11.20;;;;;;;10.22;89.74;93577.06;5108203;28;20225;-69
2022/11/01 03:40:58;;;;;;;11.83;10.73;;;;;;;10.17;89.35;93570.00;5108719;28;20248;-67
2022/11/01 03:43:26;;;;;;;12.17;10.83;;;;;;;10.18;89.44;93570.78;5108111;28;20256;-68
2022/11/01 03:45:52;;;;;;;10.37;9.67;;;;;;;10.11;89.76;93565.78;5106346;28;20201;-69
2022/11/01 03:48:17;;;;;;;13.20;11.97;;;;;;;9.94;90.10;93548.69;5109354;28;20249;-66
2022/11/01 03:50:51;;;;;;;12.73;11.50;;;;;;;10.13;89.66;93568.16;5108917;28;20212;-66
2022/11/01 03:53:16;;;;;;;12.37;11.07;;;;;;;10.12;90.23;93569.16;5106679;28;20239;-67
2022/11/01 03:55:42;;;;;;;11.43;10.30;;;;;;;10.11;89.95;93573.63;5108318;28;20195;-67
2022/11/01 03:58:08;;;;;;;11.87;10.87;;;;;;;10.08;90.78;93566.28;5108820;28;20243;-66
2022/11/01 04:00:39;;;;;;;10.77;10.07;;;;;;;10.04;90.19;93553.97;5109109;28;20180;-66
2022/11/01 04:03:05;;;;;;;12.97;11.80;;;;;;;10.04;90.14;93559.97;5108676;28;20220;-67
2022/11/01 04:05:32;;;;;;;11.97;11.00;;;;;;;10.14;89.77;93574.94;5107953;28;20244;-67
2022/11/01 04:07:58;;;;;;;13.30;12.03;;;;;;;10.02;89.95;93563.88;5108591;28;20188;-66
2022/11/01 04:10:25;;;;;;;11.03;10.20;;;;;;;10.00;90.67;93576.38;5109003;28;20250;-66
2022/11/01 04:12:51;;;;;;;11.40;9.77;;;;;;;9.93;90.69;93555.72;5107304;28;20188;-67
2022/11/01 04:21:16;;;;;;;11.73;10.97;;;;;;;9.98;90.54;93571.41;5109005;28;20198;-66
2022/11/01 04:23:43;;;;;;;15.20;11.47;;;;;;;9.96;90.42;93563.03;5108652;28;20254;-66
2022/11/01 04:26:14;;;;;;;12.03;10.93;;;;;;;10.01;90.43;93570.91;5109035;28;20188;-66
2022/11/01 04:28:40;;;;;;;11.73;10.93;;;;;;;9.97;90.82;93574.25;5108921;28;20218;-67
2022/11/01 04:31:06;;;;;;;12.57;11.67;;;;;;;9.95;90.98;93569.28;5108979;28;20220;-66
2022/11/01 04:33:31;;;;;;;12.77;11.87;;;;;;;9.89;91.11;93569.50;5108715;28;20234;-68
2022/11/01 04:35:57;;;;;;;12.63;11.73;;;;;;;9.77;91.96;93569.69;5108860;28;20188;-68
2022/11/01 04:38:23;;;;;;;11.87;11.17;;;;;;;9.78;92.14;93571.25;5109075;28;20232;-67
2022/11/01 04:40:48;;;;;;;12.07;11.17;;;;;;;9.79;91.76;93573.63;5107899;28;20196;-68
2022/11/01 04:43:14;;;;;;;12.80;11.80;;;;;;;9.65;92.38;93558.63;5106820;28;20228;-68
2022/11/01 04:45:39;;;;;;;13.37;12.17;;;;;;;9.72;92.16;93569.66;5106954;28;20208;-68
2022/11/01 04:48:06;;;;;;;12.47;11.20;;;;;;;9.70;92.10;93569.13;5108185;28;20216;-68
2022/11/01 04:50:33;;;;;;;12.70;11.80;;;;;;;9.61;92.77;93570.59;5108246;28;20211;-68
2022/11/01 04:52:59;;;;;;;15.57;14.47;;;;;;;9.47;92.65;93553.81;5106332;28;21563;-67
2022/11/01 04:55:28;;;;;;;12.97;12.07;;;;;;;9.56;92.30;93568.75;5104348;28;20214;-66
2022/11/01 04:57:53;;;;;;;13.13;12.00;;;;;;;9.61;92.17;93570.59;5107846;28;20279;-66
2022/11/01 05:00:19;;;;;;;14.87;13.47;;;;;;;9.67;92.24;93574.81;5111195;28;20200;-67
2022/11/01 05:02:44;;;;;;;15.43;13.50;;;;;;;9.62;92.55;93577.38;5110746;28;20256;-68
2022/11/01 05:05:10;;;;;;;15.13;13.63;;;;;;;9.59;92.40;93575.28;5111124;28;20247;-67
2022/11/01 05:07:36;;;;;;;14.70;13.33;;;;;;;9.63;91.79;93571.91;5110430;28;20184;-66
2022/11/01 05:10:02;;;;;;;13.73;12.73;;;;;;;9.54;92.25;93576.03;5108333;28;20247;-68
2022/11/01 05:12:28;;;;;;;14.60;13.30;;;;;;;9.68;92.39;93589.47;5108743;28;20184;-68
2022/11/01 05:14:53;;;;;;;13.50;12.30;;;;;;;9.67;91.95;93588.66;5110251;28;20238;-67
2022/11/01 05:17:19;;;;;;;12.93;11.73;;;;;;;9.62;93.31;93577.38;5109919;28;20192;-68
2022/11/01 05:19:44;;;;;;;12.37;11.30;;;;;;;9.74;92.27;93588.47;5107185;28;20227;-67
2022/11/01 05:22:09;;;;;;;12.90;11.90;;;;;;;9.73;91.73;93586.88;5108175;28;20285;-67
2022/11/01 05:24:35;;;;;;;12.00;10.97;;;;;;;9.82;91.41;93597.63;5109315;28;20222;-67
2022/11/01 05:27:00;;;;;;;13.37;11.90;;;;;;;9.59;91.34;93562.25;5105542;28;20209;-67
2022/11/01 05:29:26;;;;;;;12.70;11.70;;;;;;;9.79;91.92;93604.91;5102622;28;20231;-67
2022/11/01 05:31:52;;;;;;;12.57;11.77;;;;;;;9.86;91.87;93604.72;5106179;28;20227;-66
2022/11/01 05:34:18;;;;;;;14.17;11.70;;;;;;;9.91;91.65;93607.38;5109501;28;20287;-66
2022/11/01 05:36:43;;;;;;;12.80;11.63;;;;;;;9.92;91.51;93608.94;5104714;28;20990;-66
2022/11/01 05:39:09;;;;;;;13.57;12.10;;;;;;;10.03;91.45;93615.78;5106622;28;20291;-67
2022/11/01 05:41:34;;;;;;;13.83;12.40;;;;;;;10.03;91.82;93613.19;5106172;28;20206;-66
2022/11/01 05:44:00;;;;;;;15.03;11.60;;;;;;;9.99;91.39;93580.81;5108878;28;20232;-66
2022/11/01 05:46:25;;;;;;;18.97;15.83;;;;;;;10.26;90.57;93618.06;5108276;28;20196;-66
2022/11/01 05:48:50;;;;;;;16.03;14.63;;;;;;;10.35;90.42;93621.00;5109690;28;20231;-68
2022/11/01 05:51:16;;;;;;;13.50;12.40;;;;;;;10.46;90.06;93618.19;5110230;28;20240;-66
2022/11/01 05:53:41;;;;;;;14.80;13.27;;;;;;;10.41;89.99;93612.16;5110438;28;20220;-65
2022/11/01 05:56:07;;;;;;;14.63;12.47;;;;;;;10.48;90.26;93621.34;5106052;28;20176;-65
2022/11/01 05:58:32;;;;;;;13.70;12.70;;;;;;;10.50;90.33;93629.72;5110407;28;21164;-66
2022/11/01 06:00:59;;;;;;;12.40;11.30;;;;;;;10.59;90.16;93632.63;5110356;28;20200;-66
2022/11/01 06:03:25;;;;;;;12.53;11.43;;;;;;;10.62;90.17;93624.28;5110031;28;20224;-65
2022/11/01 06:05:50;;;;;;;13.53;12.53;;;;;;;10.74;89.68;93633.47;5110705;28;20249;-66
2022/11/01 06:08:15;;;;;;;15.47;13.07;;;;;;;10.77;89.93;93632.97;5109791;28;20223;-66
2022/11/01 06:10:41;;;;;;;14.60;13.20;;;;;;;10.83;89.67;93631.94;5110722;28;20233;-67
2022/11/01 06:13:07;;;;;;;13.97;12.57;;;;;;;10.90;89.84;93636.94;5110506;28;20235;-68
2022/11/01 06:15:33;;;;;;;14.13;12.80;;;;;;;11.11;89.86;93639.38;5108518;28;20227;-67
2022/11/01 06:17:58;;;;;;;14.63;11.90;;;;;;;11.27;89.61;93641.00;5106152;28;20196;-68
2022/11/01 06:20:25;;;;;;;15.40;14.27;;;;;;;11.34;88.96;93638.16;5106036;28;20184;-67
2022/11/01 06:22:51;;;;;;;13.63;12.37;;;;;;;11.46;86.26;93640.53;5106641;28;20199;-70
2022/11/01 06:25:17;;;;;;;13.90;12.53;;;;;;;11.47;87.00;93636.88;5107923;28;20209;-68
2022/11/01 06:27:42;;;;;;;15.67;14.13;;;;;;;11.79;91.01;93637.47;5109677;28;20180;-69
2022/11/01 06:30:08;;;;;;;13.37;12.23;;;;;;;11.74;87.01;93627.00;5110314;28;20203;-69
2022/11/01 06:32:34;;;;;;;16.07;13.03;;;;;;;12.03;82.88;93651.66;5110275;28;20180;-71
2022/11/01 06:34:59;;;;;;;14.13;12.83;;;;;;;12.07;82.52;93647.44;5109455;28;20212;-70
2022/11/01 06:37:24;;;;;;;15.63;13.30;;;;;;;11.96;82.91;93651.09;5111109;28;20226;-69
2022/11/01 06:39:50;;;;;;;18.20;13.90;;;;;;;12.03;82.71;93654.25;5110138;28;20230;-70
2022/11/01 06:42:15;;;;;;;14.03;12.60;;;;;;;12.13;82.09;93651.63;5109075;28;20195;-69
2022/11/01 06:44:40;;;;;;;17.27;12.93;;;;;;;12.22;81.84;93656.09;5109769;28;20216;-70
2022/11/01 06:47:06;;;;;;;18.57;16.67;;;;;;;12.32;81.72;93652.69;5109600;28;20187;-70
2022/11/01 06:49:31;;;;;;;18.43;15.57;;;;;;;12.31;81.90;93651.88;5108712;28;20278;-70
2022/11/01 06:51:56;;;;;;;15.57;13.97;;;;;;;12.22;81.90;93644.81;5109367;28;20221;-70
2022/11/01 06:54:22;;;;;;;20.17;16.00;;;;;;;12.28;82.06;93654.25;5109214;28;20240;-70
2022/11/01 06:56:48;;;;;;;17.67;14.33;;;;;;;12.32;82.23;93653.47;5108394;28;20226;-70
2022/11/01 06:59:15;;;;;;;17.97;14.77;;;;;;;12.23;82.41;93646.41;5109813;28;20215;-68
2022/11/01 07:01:41;;;;;;;18.37;16.40;;;;;;;12.34;81.54;93650.59;5110950;28;20188;-70
2022/11/01 07:04:06;;;;;;;18.40;16.63;;;;;;;12.49;81.21;93650.56;5109713;28;20702;-68
2022/11/01 07:06:32;;;;;;;19.53;16.10;;;;;;;12.34;82.73;93643.50;5110059;28;20202;-67
2022/11/01 07:08:58;;;;;;;20.80;18.60;;;;;;;12.39;82.56;93640.13;5105591;28;20227;-67
2022/11/01 07:11:24;;;;;;;19.13;17.13;;;;;;;12.51;81.16;93638.75;5101868;28;20239;-67
2022/11/01 07:13:49;;;;;;;21.43;18.13;;;;;;;12.52;80.84;93629.88;5106776;28;20235;-70
2022/11/01 07:16:14;;;;;;;25.37;18.53;;;;;;;12.82;80.55;93655.22;5107876;28;20203;-69
2022/11/01 07:18:40;;;;;;;22.73;18.63;;;;;;;12.86;80.71;93641.31;5107919;28;20228;-69
2022/11/01 07:21:05;;;;;;;26.83;18.20;;;;;;;13.15;79.67;93654.63;5107608;28;20203;-68
2022/11/01 07:23:31;;;;;;;21.63;18.50;;;;;;;13.09;79.90;93650.44;5107924;28;20230;-69
2022/11/01 07:25:57;;;;;;;21.10;18.10;;;;;;;13.01;80.61;93658.06;5107216;28;20216;-69
2022/11/01 07:28:23;;;;;;;27.33;18.73;;;;;;;12.75;81.57;93639.78;5107047;28;20264;-69
2022/11/01 07:30:52;;;;;;;24.87;17.70;;;;;;;13.31;79.89;93656.13;5107748;28;20207;-69
2022/11/01 07:33:19;;;;;;;26.17;18.17;;;;;;;13.48;78.39;93653.16;5108401;28;20220;-68
2022/11/01 07:35:44;;;;;;;21.60;17.40;;;;;;;13.32;79.88;93655.09;5106909;28;20212;-67
2022/11/01 07:38:10;;;;;;;27.80;18.70;;;;;;;13.10;80.48;93657.25;5107100;28;20234;-67
2022/11/01 07:40:36;;;;;;;18.80;16.70;;;;;;;13.42;79.59;93662.88;5108114;28;20172;-67
2022/11/01 07:43:02;;;;;;;28.77;17.43;;;;;;;13.35;78.72;93662.41;5107318;28;20231;-69
2022/11/01 07:45:30;;;;;;;22.10;19.10;;;;;;;13.79;77.49;93657.19;5106888;28;20188;-67
2022/11/01 07:48:03;;;;;;;25.73;18.17;;;;;;;13.75;77.54;93659.56;5101021;28;20188;-69
2022/11/01 07:50:33;;;;;;;23.73;18.57;;;;;;;13.75;77.98;93659.56;5108646;28;20815;-70
2022/11/01 07:53:03;;;;;;;21.57;18.53;;;;;;;13.85;77.97;93664.75;5108307;28;20188;-68
2022/11/01 07:55:29;;;;;;;28.83;18.63;;;;;;;14.26;74.86;93658.19;5107346;28;20188;-70
2022/11/01 07:57:55;;;;;;;26.53;20.47;;;;;;;13.91;76.22;93663.69;5107028;28;20196;-70
2022/11/01 08:00:20;;;;;;;27.87;21.30;;;;;;;13.90;77.21;93663.94;5107169;28;20200;-69
2022/11/01 08:02:46;;;;;;;26.57;19.00;;;;;;;14.01;76.09;93665.44;5106608;28;20188;-71
2022/11/01 08:05:11;;;;;;;26.63;18.97;;;;;;;14.11;75.20;93657.50;5105637;28;20219;-70
2022/11/01 08:07:39;;;;;;;32.63;19.10;;;;;;;14.30;73.96;93661.81;5106312;28;20208;-71
2022/11/01 08:10:06;;;;;;;26.47;20.37;;;;;;;14.35;73.88;93664.41;5106510;28;20216;-70
2022/11/01 08:12:32;;;;;;;30.23;20.03;;;;;;;14.28;73.61;93645.56;5105597;28;20188;-70
2022/11/01 08:14:57;;;;;;;29.07;20.70;;;;;;;14.36;73.99;93660.75;5107184;28;20250;-70
2022/11/01 08:17:22;;;;;;;37.93;20.50;;;;;;;14.24;73.34;93662.91;5106777;28;20207;-70
2022/11/01 08:19:48;;;;;;;33.37;20.37;;;;;;;14.40;73.27;93650.44;5106919;28;20224;-70
2022/11/01 08:22:13;;;;;;;33.63;21.03;;;;;;;14.61;73.02;93658.94;5106731;28;20192;-70
2022/11/01 08:24:38;;;;;;;28.30;21.10;;;;;;;14.79;71.37;93648.50;5106881;28;20242;-70
2022/11/01 08:27:04;;;;;;;24.87;19.67;;;;;;;14.83;71.13;93659.25;5107483;28;20196;-69
2022/11/01 08:29:29;;;;;;;31.57;20.47;;;;;;;14.79;71.98;93659.03;5107097;28;20228;-69
2022/11/01 08:31:54;;;;;;;31.73;19.53;;;;;;;14.60;72.44;93657.38;5107549;28;20271;-70
2022/11/01 08:34:20;;;;;;;24.97;21.03;;;;;;;14.78;71.93;93656.66;5105104;28;20269;-69
2022/11/01 08:36:45;;;;;;;31.60;18.40;;;;;;;14.90;69.92;93657.88;5107985;28;20184;-70
2022/11/01 08:39:11;;;;;;;26.13;17.20;;;;;;;14.99;70.28;93648.28;5112195;28;20227;-70
2022/11/01 08:41:36;;;;;;;22.97;17.70;;;;;;;15.07;69.31;93652.94;5109281;28;20194;-70
2022/11/01 08:44:02;;;;;;;29.47;18.07;;;;;;;14.95;70.29;93641.25;5107038;28;20219;-70
2022/11/01 08:46:27;;;;;;;29.00;18.90;;;;;;;14.88;69.97;93644.19;5109511;28;20216;-71
2022/11/01 08:48:58;;;;;;;26.13;19.40;;;;;;;15.38;68.46;93651.56;5109774;28;20230;-71
2022/11/01 08:51:25;;;;;;;21.43;17.47;;;;;;;15.29;68.28;93636.63;5109534;28;20212;-70
2022/11/01 08:53:56;;;;;;;27.57;18.53;;;;;;;15.52;67.81;93657.69;5109383;28;20228;-70
2022/11/01 08:56:26;;;;;;;24.87;18.00;;;;;;;15.45;67.71;93659.91;5108725;28;20226;-71
2022/11/01 08:58:53;;;;;;;24.53;19.07;;;;;;;15.60;67.28;93656.28;5108451;28;20219;-70
2022/11/01 09:01:18;;;;;;;24.57;18.30;;;;;;;15.52;68.18;93644.53;5110947;28;20216;-70
2022/11/01 09:03:44;;;;;;;22.13;18.20;;;;;;;15.88;66.66;93650.88;5110152;28;20232;-69
2022/11/01 09:06:10;;;;;;;22.83;17.90;;;;;;;15.98;66.18;93642.06;5112287;28;20192;-69
2022/11/01 09:08:35;;;;;;;24.00;18.17;;;;;;;15.80;66.46;93648.09;5111393;28;20220;-71
2022/11/01 09:11:01;;;;;;;25.83;18.13;;;;;;;15.95;65.87;93647.91;5109466;28;20257;-70
2022/11/01 09:13:26;;;;;;;30.23;20.23;;;;;;;15.98;65.98;93642.81;5110053;28;20227;-71
2022/11/01 09:15:51;;;;;;;27.33;18.53;;;;;;;16.01;66.54;93649.38;5108523;28;20185;-71
2022/11/01 09:18:17;;;;;;;34.13;18.87;;;;;;;16.02;66.34;93637.78;5109427;28;20220;-71
2022/11/01 09:20:42;;;;;;;27.20;18.47;;;;;;;16.49;64.00;93624.41;5109893;28;20961;-70
2022/11/01 09:23:08;;;;;;;26.40;19.10;;;;;;;16.78;63.15;93635.50;5110655;28;20236;-71
2022/11/01 09:25:33;;;;;;;25.70;18.33;;;;;;;16.74;63.70;93636.38;5111511;28;20191;-71
2022/11/01 09:27:59;;;;;;;27.43;18.77;;;;;;;16.88;62.73;93639.81;5109691;28;20714;-71
2022/11/01 09:30:25;;;;;;;28.87;18.13;;;;;;;16.69;63.94;93631.97;5111369;28;20281;-71
2022/11/01 09:32:50;;;;;;;26.27;18.13;;;;;;;16.57;62.96;93626.38;5108535;28;20200;-70
2022/11/01 09:35:16;;;;;;;26.23;18.17;;;;;;;16.72;62.83;93631.38;5111625;28;20754;-71
2022/11/01 09:37:42;;;;;;;28.33;19.07;;;;;;;16.79;63.14;93634.44;5108820;28;20211;-71
2022/11/01 09:40:09;;;;;;;29.47;16.73;;;;;;;16.86;62.77;93629.53;5109668;28;20216;-71
2022/11/01 09:42:41;;;;;;;27.40;16.77;;;;;;;16.95;62.36;93629.66;5109327;28;20204;-71
2022/11/01 09:45:18;;;;;;;23.30;15.17;;;;;;;17.20;62.22;93629.16;5109843;28;20220;-69
2022/11/01 09:47:47;;;;;;;17.57;14.87;;;;;;;17.30;60.37;93623.69;5109507;28;20232;-68
2022/11/01 09:50:22;;;;;;;20.57;16.00;;;;;;;17.41;60.69;93625.84;5109286;28;20231;-69
2022/11/01 09:52:50;;;;;;;20.33;15.60;;;;;;;17.41;60.24;93623.22;5110044;28;20190;-71
2022/11/01 09:55:23;;;;;;;27.63;16.07;;;;;;;17.25;61.04;93611.38;5110438;28;20267;-70
2022/11/01 09:58:05;;;;;;;22.13;14.23;;;;;;;17.41;60.93;93611.84;5108458;28;20188;-69
2022/11/01 10:00:37;;;;;;;18.47;15.10;;;;;;;17.18;60.90;93613.63;5110567;28;20179;-69
2022/11/01 10:03:32;;;;;;;19.57;15.00;;;;;;;17.33;61.14;93610.69;5109921;28;20297;-71
2022/11/01 10:06:10;;;;;;;19.73;15.07;;;;;;;17.49;60.50;93616.47;5106181;28;20180;-71
2022/11/01 10:08:50;;;;;;;24.50;14.83;;;;;;;17.26;60.99;93610.28;5106010;28;20279;-71
2022/11/01 10:11:34;;;;;;;19.67;14.33;;;;;;;17.33;60.81;93605.41;5109225;28;20235;-72
2022/11/01 10:14:08;;;;;;;16.93;14.20;;;;;;;17.60;60.43;93604.63;5107936;28;20250;-70
2022/11/01 10:16:42;;;;;;;18.10;14.20;;;;;;;17.96;58.58;93594.03;5110117;28;20218;-70
2022/11/01 10:19:23;;;;;;;16.23;14.50;;;;;;;18.08;57.71;93605.66;5108543;28;20247;-70
2022/11/01 10:21:51;;;;;;;27.97;14.23;;;;;;;18.09;58.01;93603.78;5108334;28;20207;-69
2022/11/01 10:24:30;;;;;;;16.43;14.73;;;;;;;18.26;57.62;93596.75;5107621;28;20243;-68
2022/11/01 10:27:03;;;;;;;19.03;14.50;;;;;;;18.21;57.84;93586.28;5109255;28;20200;-67
2022/11/01 10:29:36;;;;;;;21.40;15.33;;;;;;;18.31;57.25;93595.84;5107351;28;20230;-69
2022/11/01 10:32:03;;;;;;;20.80;14.30;;;;;;;18.01;57.85;93593.94;5110064;28;20221;-68
2022/11/01 10:34:37;;;;;;;19.83;14.57;;;;;;;17.88;58.80;93586.84;5107541;28;20232;-67
2022/11/01 10:37:26;;;;;;;20.47;13.90;;;;;;;18.19;57.68;93585.03;5108928;28;20557;-68
2022/11/01 10:40:00;;;;;;;14.73;13.27;;;;;;;18.41;56.50;93585.81;5107834;28;20228;-67
2022/11/01 10:42:27;;;;;;;17.37;13.47;;;;;;;18.42;56.88;93583.97;5106575;28;20196;-69
2022/11/01 10:45:03;;;;;;;18.77;12.97;;;;;;;18.40;56.24;93565.75;5107440;28;20221;-68
2022/11/01 10:47:28;;;;;;;21.80;13.23;;;;;;;18.56;56.33;93582.03;5106913;28;20217;-68
2022/11/01 10:50:13;;;;;;;16.40;13.83;;;;;;;18.60;55.73;93585.63;5105306;28;20236;-68
2022/11/01 10:53:14;;;;;;;18.60;12.37;;;;;;;18.60;56.49;93577.72;5106801;28;20205;-68
2022/11/01 10:55:56;;;;;;;17.57;14.07;;;;;;;18.70;55.51;93577.44;5044768;28;20230;-68
2022/11/01 10:58:34;;;;;;;14.90;12.90;;;;;;;18.84;55.26;93580.75;5099892;28;20252;-69
2022/11/01 11:01:02;;;;;;;17.90;14.43;;;;;;;18.58;55.67;93566.63;5108663;28;20256;-68
2022/11/01 11:03:30;;;;;;;17.80;12.67;;;;;;;18.42;56.32;93568.09;5108077;28;20221;-69
2022/11/01 11:05:59;;;;;;;18.90;13.23;;;;;;;18.29;57.08;93567.06;5107525;28;20186;-70
2022/11/01 11:08:25;;;;;;;16.07;13.73;;;;;;;18.56;56.69;93563.50;5107651;28;20280;-69
2022/11/01 11:10:50;;;;;;;18.90;13.70;;;;;;;18.91;54.22;93565.25;5105005;28;20237;-69
2022/11/01 11:13:21;;;;;;;18.57;12.80;;;;;;;18.99;54.55;93564.47;5106925;28;20240;-69
2022/11/01 11:15:59;;;;;;;18.00;12.97;;;;;;;18.78;55.35;93571.41;5106429;28;21087;-70
2022/11/01 11:18:24;;;;;;;24.03;13.03;;;;;;;18.62;55.54;93559.66;5106187;28;20228;-67
2022/11/01 11:21:04;;;;;;;14.07;12.57;;;;;;;18.57;55.96;93557.13;5107379;28;20195;-68
2022/11/01 11:23:33;;;;;;;13.60;12.20;;;;;;;18.77;55.31;93561.91;5107122;28;20252;-66
2022/11/01 11:26:08;;;;;;;18.43;13.30;;;;;;;18.91;54.95;93567.88;5107187;28;20209;-68
2022/11/01 11:28:41;;;;;;;16.00;13.93;;;;;;;18.95;55.03;93558.22;5105035;28;20220;-67
2022/11/01 11:31:21;;;;;;;22.13;13.67;;;;;;;19.06;54.12;93556.88;5098387;28;20210;-66
2022/11/01 11:33:54;;;;;;;19.97;14.37;;;;;;;18.92;54.95;93551.69;5107256;28;20256;-67
2022/11/01 11:36:30;;;;;;;16.97;13.83;;;;;;;19.06;54.17;93554.22;5104806;28;20194;-66
2022/11/01 11:38:56;;;;;;;18.70;12.90;;;;;;;19.17;54.10;93552.84;5107339;28;20395;-66